createdAt,value
2023-03-15T04:32:19.514Z,45.17
2023-03-15T04:35:06.028Z,44.58
2023-03-15T04:37:49.458Z,44.36
2023-03-15T04:40:49.186Z,44.65
2023-03-15T04:43:33.708Z,43.11
2023-03-15T04:46:32.602Z,42.55
2023-03-15T04:49:23.112Z,42.75
2023-03-15T04:52:06.127Z,42.29
2023-03-15T04:54:52.629Z,42.67
2023-03-15T04:57:37.784Z,42.52
2023-03-15T05:00:29.528Z,42.27
2023-03-15T05:03:04.446Z,41.29
2023-03-15T05:05:58.998Z,41.56
2023-03-15T05:08:36.355Z,40.37
2023-03-15T05:11:17.614Z,40.22
2023-03-15T05:13:52.096Z,39.85
2023-03-15T05:16:39.867Z,39.22
2023-03-15T05:19:35.522Z,37.95
2023-03-15T05:22:10.196Z,38.30
2023-03-15T05:24:54.289Z,37.52
2023-03-15T05:27:37.433Z,36.23
2023-03-15T05:30:29.597Z,37.19
2023-03-15T05:33:20.253Z,38.50
2023-03-15T05:36:05.526Z,34.41
2023-03-15T05:38:54.195Z,34.34
2023-03-15T05:41:31.187Z,35.02
2023-03-15T05:44:19.252Z,35.80
2023-03-15T05:47:05.898Z,34.20
2023-03-15T05:49:53.725Z,33.82
2023-03-15T05:53:00.787Z,32.78
2023-03-15T05:55:39.076Z,32.23
2023-03-15T05:58:17.262Z,33.03
2023-03-15T06:01:24.568Z,32.78
2023-03-15T06:04:02.994Z,32.24
2023-03-15T06:06:33.669Z,31.22
2023-03-15T06:09:06.298Z,32.45
2023-03-15T06:11:35.397Z,30.04
2023-03-15T06:14:04.409Z,30.33
2023-03-15T06:16:44.111Z,31.33
2023-03-15T06:19:13.282Z,31.84
2023-03-15T06:21:41.720Z,31.51
2023-03-15T06:24:23.416Z,29.40
2023-03-15T06:26:51.915Z,28.80
2023-03-15T06:29:22.100Z,31.03
2023-03-15T06:31:53.794Z,29.43
2023-03-15T06:34:22.761Z,28.53
2023-03-15T06:36:53.466Z,28.86
2023-03-15T06:39:22.184Z,28.17
2023-03-15T06:41:53.684Z,29.01
2023-03-15T06:44:23.585Z,27.44
2023-03-15T06:46:57.502Z,27.71
2023-03-15T06:49:29.035Z,26.96
2023-03-15T06:51:57.879Z,27.71
2023-03-15T06:54:26.506Z,25.72
2023-03-15T06:56:56.460Z,27.00
2023-03-15T06:59:25.172Z,27.27
2023-03-15T07:01:53.692Z,27.87
2023-03-15T07:04:22.332Z,28.20
2023-03-15T07:06:50.874Z,28.21
2023-03-15T07:09:19.707Z,27.08
2023-03-15T07:11:48.221Z,26.66
2023-03-15T07:14:16.939Z,26.99
2023-03-15T07:16:47.553Z,26.62
2023-03-15T07:19:16.405Z,26.78
2023-03-15T07:21:45.541Z,26.87
2023-03-15T07:24:14.746Z,26.77
2023-03-15T07:26:43.205Z,26.48
2023-03-15T07:29:13.854Z,26.37
2023-03-15T07:31:42.882Z,27.03
2023-03-15T07:34:11.400Z,26.95
2023-03-15T07:36:41.741Z,27.44
2023-03-15T07:39:12.006Z,27.33
2023-03-15T07:41:42.539Z,26.93
2023-03-15T07:44:23.452Z,27.31
2023-03-15T07:46:52.316Z,26.81
2023-03-15T07:49:21.357Z,27.62
2023-03-15T07:51:49.777Z,27.21
2023-03-15T07:54:20.603Z,26.56
2023-03-15T07:56:49.060Z,26.82
2023-03-15T07:59:17.438Z,26.11
2023-03-15T08:01:46.786Z,25.30
2023-03-15T08:04:15.752Z,26.03
2023-03-15T08:06:46.077Z,26.29
2023-03-15T08:09:14.804Z,26.43
2023-03-15T08:11:44.668Z,25.80
2023-03-15T08:14:17.628Z,25.24
2023-03-15T08:16:46.806Z,25.60
2023-03-15T08:19:15.712Z,26.74
2023-03-15T08:21:47.416Z,26.00
2023-03-15T08:24:15.920Z,26.61
2023-03-15T08:30:59.708Z,28.07
2023-03-15T08:33:30.478Z,28.53
2023-03-15T08:35:58.812Z,27.98
2023-03-15T08:38:27.710Z,27.88
2023-03-15T08:40:57.010Z,27.35
2023-03-15T08:43:25.727Z,27.66
2023-03-15T08:46:01.205Z,27.20
2023-03-15T08:48:31.878Z,26.56
2023-03-15T08:51:06.171Z,27.29
2023-03-15T08:53:35.968Z,26.34
2023-03-15T08:56:04.962Z,26.54
2023-03-15T08:58:34.723Z,26.11
2023-03-15T09:01:05.207Z,25.83
2023-03-15T09:03:34.606Z,25.99
2023-03-15T09:06:04.156Z,25.77
2023-03-15T09:08:34.075Z,26.33
2023-03-15T09:11:02.836Z,27.32
2023-03-15T09:13:31.303Z,26.46
2023-03-15T09:16:00.693Z,26.28
2023-03-15T09:18:29.314Z,26.06
2023-03-15T09:20:57.926Z,25.51
2023-03-15T09:23:26.960Z,24.93
2023-03-15T09:30:04.555Z,25.59
2023-03-15T09:32:37.264Z,25.88
2023-03-15T09:35:06.524Z,25.27
2023-03-15T09:37:35.712Z,26.00
2023-03-15T09:40:04.974Z,25.61
2023-03-15T09:42:38.760Z,25.75
2023-03-15T09:45:11.295Z,25.53
2023-03-15T09:47:46.033Z,25.98
2023-03-15T09:50:26.048Z,27.10
2023-03-15T09:53:14.705Z,27.28
2023-03-15T09:55:43.718Z,27.19
2023-03-15T09:58:14.778Z,27.22
2023-03-15T10:01:09.491Z,28.55
2023-03-15T10:03:47.342Z,28.01
2023-03-15T10:06:19.118Z,28.31
2023-03-15T10:08:49.558Z,28.12
2023-03-15T10:11:18.278Z,27.52
2023-03-15T10:13:49.395Z,27.83
2023-03-15T10:16:23.887Z,28.40
2023-03-15T10:19:14.178Z,28.39
2023-03-15T10:21:57.265Z,27.99
2023-03-15T10:24:32.333Z,27.75
2023-03-15T10:27:04.784Z,28.53
2023-03-15T10:29:35.250Z,28.52
2023-03-15T10:32:03.667Z,28.03
2023-03-15T10:34:32.979Z,28.41
2023-03-15T10:37:06.595Z,28.16
2023-03-15T10:39:35.705Z,28.05
2023-03-15T10:42:05.251Z,28.42
2023-03-15T10:44:35.114Z,29.18
2023-03-15T10:47:22.064Z,30.52
2023-03-15T10:49:57.044Z,31.91
2023-03-15T10:52:35.377Z,35.60
2023-03-15T10:55:07.916Z,32.22
2023-03-15T10:57:40.869Z,33.35
2023-03-15T11:00:24.958Z,33.91
2023-03-15T11:03:24.048Z,33.57
2023-03-15T11:05:54.820Z,33.29
2023-03-15T11:08:24.463Z,33.54
2023-03-15T11:10:59.699Z,32.52
2023-03-15T11:13:29.971Z,32.87
2023-03-15T11:16:06.036Z,33.48
2023-03-15T11:18:37.917Z,34.24
2023-03-15T11:21:07.755Z,35.26
2023-03-15T11:23:38.734Z,34.72
2023-03-15T11:26:10.798Z,34.77
2023-03-15T11:28:46.058Z,34.89
2023-03-15T11:31:14.685Z,34.93
2023-03-15T11:33:44.350Z,34.99
2023-03-15T11:36:14.714Z,34.83
2023-03-15T11:38:47.124Z,35.37
2023-03-15T11:41:36.069Z,36.28
2023-03-15T11:44:11.136Z,36.67
2023-03-15T11:46:41.630Z,36.32
2023-03-15T11:49:36.690Z,36.25
2023-03-15T11:52:05.168Z,36.02
2023-03-15T11:54:34.723Z,36.76
2023-03-15T11:57:04.277Z,36.99
2023-03-15T11:59:42.442Z,35.93
2023-03-15T12:02:11.436Z,35.62
2023-03-15T12:04:39.975Z,35.72
2023-03-15T12:07:16.196Z,36.28
2023-03-15T12:09:47.975Z,36.83
2023-03-15T12:12:27.265Z,37.66
2023-03-15T12:15:09.179Z,37.49
2023-03-15T12:17:38.859Z,37.01
2023-03-15T12:20:18.680Z,36.60
2023-03-15T12:22:55.759Z,37.04
2023-03-15T12:25:35.354Z,37.11
2023-03-15T12:28:09.103Z,36.38
2023-03-15T12:30:41.271Z,36.44
2023-03-15T12:33:16.201Z,36.62
2023-03-15T12:35:44.699Z,36.90
2023-03-15T12:38:20.242Z,36.80
2023-03-15T12:40:50.791Z,36.93
2023-03-15T12:43:55.865Z,37.67
2023-03-15T12:46:47.603Z,37.04
2023-03-15T12:49:18.986Z,36.63
2023-03-15T12:51:59.333Z,35.81
2023-03-15T12:54:46.221Z,35.58
2023-03-15T12:57:15.737Z,35.74
2023-03-15T13:00:13.329Z,35.76
2023-03-15T13:03:04.328Z,35.95
2023-03-15T13:05:37.777Z,35.69
2023-03-15T13:08:06.725Z,35.93
2023-03-15T13:10:39.321Z,35.92
2023-03-15T13:13:11.068Z,36.24
2023-03-15T13:15:43.148Z,35.86
2023-03-15T13:18:18.293Z,36.07
2023-03-15T13:20:50.251Z,35.92
2023-03-15T13:23:26.163Z,36.18
2023-03-15T13:26:00.111Z,36.37
2023-03-15T13:28:37.473Z,36.57
2023-03-15T13:31:17.983Z,36.73
2023-03-15T13:33:49.592Z,36.97
2023-03-15T13:36:19.579Z,37.00
2023-03-15T13:38:51.836Z,36.98
2023-03-15T13:41:27.234Z,37.04
2023-03-15T13:43:57.007Z,37.12
2023-03-15T13:46:27.112Z,37.22
2023-03-15T13:48:56.568Z,37.22
2023-03-15T13:51:25.609Z,37.20
2023-03-15T13:53:57.267Z,37.09
2023-03-15T13:56:47.025Z,37.05
2023-03-15T13:59:17.734Z,37.29
2023-03-15T14:01:46.273Z,37.17
2023-03-15T14:04:16.615Z,37.07
2023-03-15T14:06:46.068Z,37.24
2023-03-15T14:09:22.102Z,37.18
2023-03-15T14:12:07.573Z,37.13
2023-03-15T14:14:37.166Z,37.13
2023-03-15T14:17:18.864Z,36.77
2023-03-15T14:19:55.196Z,36.58
2023-03-15T14:22:24.016Z,36.61
2023-03-15T14:24:57.505Z,36.82
2023-03-15T14:27:26.702Z,36.92
2023-03-15T14:29:58.844Z,36.82
2023-03-15T14:32:31.526Z,36.54
2023-03-15T14:34:59.982Z,36.55
2023-03-15T14:37:35.935Z,36.45
2023-03-15T14:40:25.788Z,36.63
2023-03-15T14:42:54.280Z,36.81
2023-03-15T14:45:22.664Z,36.67
2023-03-15T14:47:57.050Z,36.74
2023-03-15T14:50:28.435Z,36.98
2023-03-15T14:52:57.155Z,36.81
2023-03-15T14:55:28.234Z,36.58
2023-03-15T14:57:57.287Z,36.66
2023-03-15T15:00:27.173Z,36.57
2023-03-15T15:02:56.308Z,36.79
2023-03-15T15:05:26.450Z,36.88
2023-03-15T15:08:04.569Z,36.65
2023-03-15T15:10:34.941Z,36.68
2023-03-15T15:13:06.902Z,36.98
2023-03-15T15:15:53.645Z,36.80
2023-03-15T15:18:23.918Z,36.97
2023-03-15T15:20:56.310Z,36.98
2023-03-15T15:23:29.194Z,36.99
2023-03-15T15:25:58.748Z,37.05
2023-03-15T15:28:35.358Z,37.45
2023-03-15T15:31:07.467Z,37.62
2023-03-15T15:33:45.739Z,37.67
2023-03-15T15:36:22.088Z,37.73
2023-03-15T15:38:50.790Z,37.66
2023-03-15T15:41:26.129Z,37.11
2023-03-15T15:43:56.701Z,37.58
2023-03-15T15:46:25.419Z,37.78
2023-03-15T15:48:54.861Z,38.09
2023-03-15T15:51:33.322Z,38.23
2023-03-15T15:54:05.597Z,37.38
2023-03-15T15:56:40.435Z,37.09
2023-03-15T15:59:10.058Z,37.17
2023-03-15T16:01:49.258Z,37.36
2023-03-15T16:04:26.070Z,37.53
2023-03-15T16:06:56.858Z,37.45
2023-03-15T16:09:25.802Z,37.57
2023-03-15T16:11:56.436Z,37.59
2023-03-15T16:14:25.672Z,37.83
2023-03-15T16:16:54.357Z,38.47
2023-03-15T16:19:24.363Z,38.89
2023-03-15T16:21:54.622Z,39.08
2023-03-15T16:24:25.580Z,39.62
2023-03-15T16:26:58.798Z,39.67
2023-03-15T16:29:36.676Z,40.88
2023-03-15T16:32:17.634Z,41.54
2023-03-15T16:34:49.981Z,41.61
2023-03-15T16:37:19.908Z,41.49
2023-03-15T16:39:50.788Z,41.53
2023-03-15T16:42:20.366Z,41.78
2023-03-15T16:44:48.861Z,41.61
2023-03-15T16:47:17.282Z,41.54
2023-03-15T16:49:47.067Z,41.76
2023-03-15T16:52:18.355Z,42.25
2023-03-15T16:54:48.406Z,43.04
2023-03-15T16:57:19.627Z,43.33
2023-03-15T16:59:47.851Z,43.56
2023-03-15T17:02:24.016Z,43.22
2023-03-15T17:04:53.155Z,43.37
2023-03-15T17:07:25.977Z,43.44
2023-03-15T17:09:56.931Z,43.30
2023-03-15T17:12:27.109Z,43.44
2023-03-15T17:14:59.132Z,43.46
2023-03-15T17:17:28.889Z,43.43
2023-03-15T17:20:13.156Z,43.95
2023-03-15T17:22:42.826Z,43.86
2023-03-15T17:25:12.044Z,44.02
2023-03-15T17:27:41.753Z,44.20
2023-03-15T17:30:17.937Z,44.53
2023-03-15T17:32:46.883Z,44.41
2023-03-15T17:35:16.098Z,44.79
2023-03-15T17:37:45.048Z,45.00
2023-03-15T17:40:23.233Z,45.64
2023-03-15T17:42:51.940Z,45.89
2023-03-15T17:45:28.058Z,46.63
2023-03-15T17:47:57.062Z,46.62
2023-03-15T17:50:26.562Z,46.53
2023-03-15T17:52:55.893Z,46.85
2023-03-15T17:55:25.378Z,46.67
2023-03-15T17:57:56.181Z,47.06
2023-03-15T18:00:25.301Z,47.01
2023-03-15T18:02:55.899Z,46.98
2023-03-15T18:05:25.753Z,47.14
2023-03-15T18:08:00.635Z,47.31
2023-03-15T18:10:36.507Z,47.79
2023-03-15T18:13:05.056Z,47.91
2023-03-15T18:15:37.863Z,47.91
2023-03-15T18:18:08.416Z,48.00
2023-03-15T18:20:37.619Z,48.68
2023-03-15T18:23:07.806Z,48.48
2023-03-15T18:25:36.511Z,49.00
2023-03-15T18:28:06.242Z,49.23
2023-03-15T18:30:35.284Z,49.22
2023-03-15T18:33:05.968Z,49.25
2023-03-15T18:35:35.620Z,48.89
2023-03-15T18:38:05.491Z,49.66
2023-03-15T18:40:33.995Z,49.15
2023-03-15T18:43:05.702Z,49.86
2023-03-15T18:45:35.231Z,50.55
2023-03-15T18:48:04.652Z,50.61
2023-03-15T18:50:33.884Z,50.11
2023-03-15T18:53:03.919Z,50.09
2023-03-15T18:55:35.282Z,51.01
2023-03-15T18:58:06.719Z,50.76
2023-03-15T19:00:41.832Z,50.62
2023-03-15T19:03:11.509Z,50.70
2023-03-15T19:05:40.305Z,50.94
2023-03-15T19:08:09.839Z,51.67
2023-03-15T19:10:38.301Z,51.25
2023-03-15T19:13:07.389Z,50.28
2023-03-15T19:15:36.369Z,50.98
2023-03-15T19:18:08.397Z,50.82
2023-03-15T19:20:40.891Z,51.34
2023-03-15T19:23:09.703Z,51.67
2023-03-15T19:25:42.285Z,52.39
2023-03-15T19:28:11.438Z,51.67
2023-03-15T19:30:46.231Z,51.09
2023-03-15T19:33:16.597Z,50.47
2023-03-15T19:35:46.304Z,50.75
2023-03-15T19:38:15.887Z,51.57
2023-03-15T19:40:51.654Z,52.20
2023-03-15T19:43:20.253Z,52.76
2023-03-15T19:45:48.888Z,53.15
2023-03-15T19:48:18.505Z,53.06
2023-03-15T19:50:47.896Z,52.33
2023-03-15T19:53:16.386Z,53.29
2023-03-15T19:55:47.348Z,52.55
2023-03-15T19:58:15.872Z,52.44
2023-03-15T20:00:44.594Z,51.62
2023-03-15T20:03:13.272Z,51.11
2023-03-15T20:05:41.645Z,51.02
2023-03-15T20:08:11.444Z,51.08
2023-03-15T20:10:41.961Z,50.82
2023-03-15T20:13:10.768Z,50.37
2023-03-15T20:15:39.904Z,50.23
2023-03-15T20:18:13.151Z,50.91
2023-03-15T20:20:42.616Z,52.21
2023-03-15T20:23:14.138Z,53.30
2023-03-15T20:25:43.550Z,53.62
2023-03-15T20:28:12.764Z,53.45
2023-03-15T20:30:43.277Z,52.59
2023-03-15T20:33:13.194Z,52.27
2023-03-15T20:35:41.514Z,52.62
2023-03-15T20:38:14.004Z,52.05
2023-03-15T20:40:47.544Z,52.38
2023-03-15T20:43:20.047Z,52.83
2023-03-15T20:45:49.335Z,53.10
2023-03-15T20:48:17.687Z,53.64
2023-03-15T20:50:47.983Z,53.76
2023-03-15T20:53:16.827Z,53.43
2023-03-15T20:55:49.601Z,52.87
2023-03-15T20:58:18.766Z,52.66
2023-03-15T21:00:47.743Z,52.84
2023-03-15T21:03:16.643Z,53.67
2023-03-15T21:05:46.180Z,54.03
2023-03-15T21:08:20.198Z,55.18
2023-03-15T21:10:48.692Z,55.76
2023-03-15T21:13:17.647Z,54.34
2023-03-15T21:15:46.688Z,54.34
2023-03-15T21:18:17.121Z,53.99
2023-03-15T21:20:45.573Z,53.55
2023-03-15T21:23:15.117Z,53.63
2023-03-15T21:25:43.965Z,53.39
2023-03-15T21:28:15.636Z,53.32
2023-03-15T21:30:46.570Z,54.16
2023-03-15T21:33:15.145Z,55.10
2023-03-15T21:35:43.548Z,55.12
2023-03-15T21:38:13.662Z,55.33
2023-03-15T21:40:45.102Z,55.90
2023-03-15T21:43:14.144Z,56.23
2023-03-15T21:45:42.721Z,56.23
2023-03-15T21:48:13.083Z,56.42
2023-03-15T21:50:41.787Z,56.51
2023-03-15T21:53:10.368Z,56.31
2023-03-15T21:55:39.762Z,55.77
2023-03-15T21:58:07.955Z,56.24
2023-03-15T22:00:37.409Z,57.28
2023-03-15T22:03:06.046Z,56.98
2023-03-15T22:05:34.809Z,56.62
2023-03-15T22:08:03.526Z,56.83
2023-03-15T22:10:31.861Z,56.78
2023-03-15T22:13:00.966Z,57.08
2023-03-15T22:15:30.983Z,56.74
2023-03-15T22:17:59.480Z,56.80
2023-03-15T22:20:35.020Z,56.73
2023-03-15T22:23:04.638Z,56.06
2023-03-15T22:25:33.046Z,56.24
2023-03-15T22:28:02.212Z,56.49
2023-03-15T22:30:31.706Z,56.48
2023-03-15T22:33:03.767Z,56.49
2023-03-15T22:35:32.609Z,56.18
2023-03-15T22:38:01.397Z,56.25
2023-03-15T22:40:30.608Z,56.93
2023-03-15T22:43:00.050Z,56.80
2023-03-15T22:45:30.547Z,56.08
2023-03-15T22:47:58.971Z,55.41
2023-03-15T22:50:31.093Z,55.12
2023-03-15T22:53:00.938Z,55.46
2023-03-15T22:55:29.724Z,55.63
2023-03-15T22:57:58.031Z,55.28
2023-03-15T23:00:27.107Z,54.97
2023-03-15T23:02:55.886Z,55.25
2023-03-15T23:05:24.234Z,55.62
2023-03-15T23:07:52.363Z,54.79
2023-03-15T23:10:21.294Z,54.91
2023-03-15T23:12:49.705Z,54.83
2023-03-15T23:15:18.641Z,54.77
2023-03-15T23:17:47.292Z,54.98
2023-03-15T23:20:16.855Z,55.29
2023-03-15T23:22:45.381Z,55.26
2023-03-15T23:25:14.177Z,55.14
2023-03-15T23:27:42.521Z,54.73
2023-03-15T23:30:13.546Z,54.75
2023-03-15T23:32:42.916Z,54.65
2023-03-15T23:35:12.558Z,54.65
2023-03-15T23:37:41.600Z,54.68
2023-03-15T23:40:15.457Z,54.84
2023-03-15T23:42:45.601Z,54.47
2023-03-15T23:45:15.479Z,54.34
2023-03-15T23:47:47.369Z,54.53
2023-03-15T23:50:16.401Z,54.39
2023-03-15T23:52:44.722Z,54.26
2023-03-15T23:55:13.554Z,54.21
2023-03-15T23:57:42.280Z,54.38
